Time;durP1;ratioP1;P1;durP2;ratioP2;P2;SDS_P1;SDS_P2;PMS_P1;PMS_P2;Temp;Humidity;BMP_temperature;BMP_pressure;BME280_temperature;BME280_humidity;BME280_pressure;Samples;Min_cycle;Max_cycle;Signal;HPM_P1;HPM_P2
2021/12/22 00:01:56;;;;;;;23.73;6.00;;;;;;;;;;4959111;28;20035;-65
2021/12/22 00:04:26;;;;;;;25.45;6.18;;;;;;;;;;4959119;28;20023;-65
2021/12/22 00:07:00;;;;;;;22.23;7.15;;;;;;;;;;4959087;28;20035;-65
2021/12/22 00:09:30;;;;;;;41.72;19.10;;;;;;;;;;4959180;28;20024;-66
2021/12/22 00:12:01;;;;;;;56.28;27.30;;;;;;;;;;4959168;28;20027;-66
2021/12/22 00:14:31;;;;;;;122.90;57.58;;;;;;;;;;4959077;28;20365;-66
2021/12/22 00:17:02;;;;;;;204.90;103.38;;;;;;;;;;4959011;28;20031;-68
2021/12/22 00:19:33;;;;;;;60.90;29.65;;;;;;;;;;4958980;28;20042;-66
2021/12/22 00:22:00;;;;;;;28.77;13.27;;;;;;;;;;4958837;28;20043;-66
2021/12/22 00:24:29;;;;;;;32.97;11.80;;;;;;;;;;4957696;28;20322;-67
2021/12/22 00:26:59;;;;;;;41.67;22.17;;;;;;;;;;4958654;28;20034;-67
2021/12/22 00:29:30;;;;;;;36.97;16.98;;;;;;;;;;4958759;28;20050;-67
2021/12/22 00:32:11;;;;;;;35.78;15.27;;;;;;;;;;4958733;28;20023;-67
2021/12/22 00:34:51;;;;;;;68.43;29.40;;;;;;;;;;4958678;28;20034;-66
2021/12/22 00:37:26;;;;;;;66.53;30.00;;;;;;;;;;4958815;28;20024;-66
2021/12/22 00:39:57;;;;;;;56.08;25.55;;;;;;;;;;4976204;28;20043;-66
2021/12/22 00:42:27;;;;;;;50.35;20.27;;;;;;;;;;4976369;28;20030;-66
2021/12/22 00:44:58;;;;;;;69.20;31.92;;;;;;;;;;4975450;28;20046;-66
2021/12/22 00:47:30;;;;;;;63.90;32.55;;;;;;;;;;4976179;28;20027;-66
2021/12/22 00:50:00;;;;;;;72.00;36.75;;;;;;;;;;4976303;28;20045;-66
2021/12/22 00:52:30;;;;;;;108.32;55.00;;;;;;;;;;4976057;28;20030;-66
2021/12/22 00:55:01;;;;;;;81.90;38.03;;;;;;;;;;4976144;28;20066;-66
2021/12/22 00:57:33;;;;;;;85.53;39.67;;;;;;;;;;4976104;28;20035;-66
2021/12/22 01:00:04;;;;;;;87.43;44.50;;;;;;;;;;4975903;28;20335;-66
2021/12/22 01:02:33;;;;;;;89.82;42.47;;;;;;;;;;4975979;28;20085;-66
2021/12/22 01:05:04;;;;;;;102.07;49.00;;;;;;;;;;4975988;28;20046;-66
2021/12/22 01:07:35;;;;;;;129.20;61.22;;;;;;;;;;4975961;28;20031;-66
2021/12/22 01:10:06;;;;;;;46.70;22.40;;;;;;;;;;4956615;28;20379;-66
2021/12/22 01:12:37;;;;;;;57.20;28.73;;;;;;;;;;4958548;28;20031;-66
2021/12/22 01:15:11;;;;;;;56.65;27.52;;;;;;;;;;4958111;28;20027;-66
2021/12/22 01:17:46;;;;;;;82.80;34.55;;;;;;;;;;4958332;28;20023;-66
2021/12/22 01:20:29;;;;;;;56.10;21.73;;;;;;;;;;4957963;28;20354;-66
2021/12/22 01:23:05;;;;;;;56.88;25.83;;;;;;;;;;4957800;28;20343;-66
2021/12/22 01:25:42;;;;;;;50.17;21.23;;;;;;;;;;4958044;28;20415;-66
2021/12/22 01:28:13;;;;;;;50.42;20.73;;;;;;;;;;4956638;28;20030;-66
2021/12/22 01:30:47;;;;;;;34.70;11.98;;;;;;;;;;4958090;28;20019;-66
2021/12/22 01:33:18;;;;;;;28.25;10.82;;;;;;;;;;4958230;28;20110;-66
2021/12/22 01:35:48;;;;;;;20.42;8.18;;;;;;;;;;4958019;28;20028;-66
2021/12/22 01:38:19;;;;;;;30.80;10.02;;;;;;;;;;4958075;28;20098;-66
2021/12/22 01:40:50;;;;;;;24.30;9.38;;;;;;;;;;4956836;28;20070;-67
2021/12/22 01:43:21;;;;;;;44.75;15.93;;;;;;;;;;4957790;28;20074;-67
2021/12/22 01:46:09;;;;;;;67.53;24.38;;;;;;;;;;4957876;28;20019;-67
2021/12/22 01:52:02;;;;;;;41.88;14.75;;;;;;;;;;4957896;29;20050;-67
2021/12/22 01:54:50;;;;;;;32.28;10.48;;;;;;;;;;4961368;28;20166;-66
2021/12/22 01:57:21;;;;;;;24.15;6.30;;;;;;;;;;4960125;28;20035;-66
2021/12/22 01:59:51;;;;;;;19.27;5.63;;;;;;;;;;4961472;28;20099;-66
2021/12/22 02:02:22;;;;;;;16.42;3.88;;;;;;;;;;4960080;28;20059;-66
2021/12/22 02:04:49;;;;;;;15.10;3.00;;;;;;;;;;4958900;28;20421;-65
2021/12/22 02:07:17;;;;;;;21.08;4.30;;;;;;;;;;4960808;28;20039;-66
2021/12/22 02:12:17;;;;;;;16.52;3.45;;;;;;;;;;4960712;28;20034;-66
2021/12/22 02:14:46;;;;;;;14.00;3.17;;;;;;;;;;4960811;28;20324;-66
2021/12/22 02:17:16;;;;;;;11.00;2.75;;;;;;;;;;4960896;28;20027;-66
2021/12/22 02:19:48;;;;;;;14.70;3.80;;;;;;;;;;4960589;28;20305;-67
2021/12/22 02:22:16;;;;;;;14.77;5.80;;;;;;;;;;4959506;28;20046;-67
2021/12/22 02:24:49;;;;;;;18.95;5.97;;;;;;;;;;4960424;28;20067;-67
2021/12/22 02:27:35;;;;;;;16.45;5.20;;;;;;;;;;4960435;28;20046;-67
2021/12/22 02:30:05;;;;;;;17.15;4.50;;;;;;;;;;4960416;28;20027;-65
2021/12/22 02:35:26;;;;;;;19.58;5.97;;;;;;;;;;4956938;29;20321;-65
2021/12/22 02:37:54;;;;;;;22.02;6.03;;;;;;;;;;4958128;28;20038;-66
2021/12/22 02:40:26;;;;;;;20.50;5.15;;;;;;;;;;4958481;28;20080;-65
2021/12/22 02:43:04;;;;;;;18.02;5.05;;;;;;;;;;4956823;28;20408;-65
2021/12/22 02:45:34;;;;;;;26.55;5.22;;;;;;;;;;4955014;28;20425;-64
2021/12/22 02:48:01;;;;;;;19.10;6.18;;;;;;;;;;4977201;28;20650;-64
2021/12/22 02:50:29;;;;;;;22.10;7.13;;;;;;;;;;4973596;28;20395;-65
2021/12/22 02:53:05;;;;;;;20.48;7.35;;;;;;;;;;4978661;28;20063;-66
2021/12/22 02:58:23;;;;;;;39.88;11.65;;;;;;;;;;4978717;28;20031;-66
2021/12/22 03:01:07;;;;;;;39.13;13.60;;;;;;;;;;4977358;28;20023;-65
2021/12/22 03:06:12;;;;;;;30.80;11.30;;;;;;;;;;4973756;28;20692;-66
2021/12/22 03:08:40;;;;;;;151.98;61.45;;;;;;;;;;4974659;28;20054;-67
2021/12/22 03:11:07;;;;;;;29.55;12.88;;;;;;;;;;4971551;28;20023;-67
2021/12/22 03:13:35;;;;;;;42.80;16.35;;;;;;;;;;4974709;28;20163;-66
2021/12/22 03:16:03;;;;;;;106.75;49.03;;;;;;;;;;4991316;28;20038;-67
2021/12/22 03:18:31;;;;;;;70.38;28.52;;;;;;;;;;4993123;28;20490;-65
2021/12/22 03:21:09;;;;;;;68.18;26.98;;;;;;;;;;4992789;28;20435;-67
2021/12/22 03:23:37;;;;;;;65.53;24.88;;;;;;;;;;4990545;28;20055;-66
2021/12/22 03:26:06;;;;;;;58.47;23.23;;;;;;;;;;4989323;28;20042;-66
2021/12/22 03:28:34;;;;;;;57.92;21.38;;;;;;;;;;4971980;28;20039;-67
2021/12/22 03:31:03;;;;;;;42.15;17.33;;;;;;;;;;4989873;28;20461;-66
2021/12/22 03:33:31;;;;;;;51.40;20.27;;;;;;;;;;4972955;28;20046;-67
2021/12/22 03:35:58;;;;;;;38.30;14.45;;;;;;;;;;4969838;28;20093;-67
2021/12/22 03:38:26;;;;;;;59.75;22.10;;;;;;;;;;4952197;28;20035;-67
2021/12/22 03:40:53;;;;;;;39.58;15.48;;;;;;;;;;4971417;28;20043;-68
2021/12/22 03:43:21;;;;;;;38.08;16.90;;;;;;;;;;4969458;28;20031;-68
2021/12/22 03:45:49;;;;;;;36.78;17.20;;;;;;;;;;4967723;28;20027;-67
2021/12/22 03:48:18;;;;;;;44.88;22.80;;;;;;;;;;4969261;28;20101;-67
2021/12/22 03:50:45;;;;;;;57.38;26.90;;;;;;;;;;4969212;28;20027;-68
2021/12/22 03:53:13;;;;;;;43.60;18.08;;;;;;;;;;4969015;28;20040;-67
2021/12/22 03:55:41;;;;;;;26.50;12.00;;;;;;;;;;4968286;28;20585;-66
2021/12/22 03:58:09;;;;;;;19.05;8.05;;;;;;;;;;4970331;28;20029;-66
2021/12/22 04:00:37;;;;;;;22.58;8.35;;;;;;;;;;4971655;28;20760;-67
2021/12/22 04:03:08;;;;;;;18.65;7.05;;;;;;;;;;4970278;28;20077;-66
2021/12/22 04:05:36;;;;;;;20.25;8.00;;;;;;;;;;4969713;28;20117;-67
2021/12/22 04:08:03;;;;;;;24.15;6.88;;;;;;;;;;4972196;28;20106;-67
2021/12/22 04:10:31;;;;;;;19.35;7.80;;;;;;;;;;4978377;28;20058;-69
2021/12/22 04:12:59;;;;;;;20.80;6.63;;;;;;;;;;4975276;28;20122;-68
2021/12/22 04:15:27;;;;;;;19.73;6.28;;;;;;;;;;4973993;28;20101;-65
2021/12/22 04:17:55;;;;;;;22.67;5.80;;;;;;;;;;4976937;28;20034;-66
2021/12/22 04:20:25;;;;;;;23.88;3.72;;;;;;;;;;4976848;28;20486;-68
2021/12/22 04:22:54;;;;;;;15.10;3.22;;;;;;;;;;4977038;28;20051;-69
2021/12/22 04:25:22;;;;;;;10.52;3.33;;;;;;;;;;4977022;28;20042;-67
2021/12/22 04:27:53;;;;;;;23.23;5.97;;;;;;;;;;4975748;28;20027;-65
2021/12/22 04:30:21;;;;;;;19.10;6.40;;;;;;;;;;4976922;28;20043;-66
2021/12/22 04:32:49;;;;;;;17.08;4.70;;;;;;;;;;4975243;28;20027;-67
2021/12/22 04:35:17;;;;;;;25.13;8.75;;;;;;;;;;4975110;28;20037;-67
2021/12/22 04:37:45;;;;;;;23.38;6.88;;;;;;;;;;4976785;28;20035;-66
2021/12/22 04:40:13;;;;;;;20.63;6.25;;;;;;;;;;4976999;28;20081;-67
2021/12/22 04:42:43;;;;;;;17.75;5.95;;;;;;;;;;4976723;28;20026;-65
2021/12/22 04:45:12;;;;;;;23.85;7.70;;;;;;;;;;4976810;28;20066;-66
2021/12/22 04:47:40;;;;;;;19.65;6.10;;;;;;;;;;4976884;28;20370;-68
2021/12/22 04:50:12;;;;;;;19.48;6.13;;;;;;;;;;4976633;28;20037;-68
2021/12/22 04:52:53;;;;;;;20.55;6.28;;;;;;;;;;4977004;28;20085;-65
2021/12/22 04:55:21;;;;;;;24.05;7.45;;;;;;;;;;4975604;28;20053;-65
2021/12/22 04:57:55;;;;;;;29.92;12.77;;;;;;;;;;4975353;28;20109;-66
2021/12/22 05:00:23;;;;;;;31.42;15.30;;;;;;;;;;4975582;28;20035;-69
2021/12/22 05:02:51;;;;;;;30.95;14.05;;;;;;;;;;4976491;28;20043;-67
2021/12/22 05:05:18;;;;;;;49.92;17.48;;;;;;;;;;4976488;28;20023;-67
2021/12/22 05:07:47;;;;;;;23.13;15.93;;;;;;;;;;4976902;28;20027;-67
2021/12/22 05:10:15;;;;;;;22.85;11.00;;;;;;;;;;4975400;28;20080;-68
2021/12/22 05:12:45;;;;;;;17.65;7.22;;;;;;;;;;4976121;28;20027;-66
2021/12/22 05:15:13;;;;;;;17.60;6.53;;;;;;;;;;4975946;28;20153;-66
2021/12/22 05:20:13;;;;;;;9.90;4.10;;;;;;;;;;4975840;28;20067;-67
2021/12/22 05:22:39;;;;;;;12.98;3.95;;;;;;;;;;4974778;28;20057;-67
2021/12/22 05:25:07;;;;;;;12.20;3.80;;;;;;;;;;4973556;28;20037;-67
2021/12/22 05:27:35;;;;;;;10.63;3.55;;;;;;;;;;4975007;28;20462;-67
2021/12/22 05:30:03;;;;;;;12.15;4.38;;;;;;;;;;4976687;28;20031;-68
2021/12/22 05:32:32;;;;;;;15.10;6.60;;;;;;;;;;4979159;28;20106;-67
2021/12/22 05:35:00;;;;;;;20.33;6.85;;;;;;;;;;4979762;28;20105;-68
2021/12/22 05:37:28;;;;;;;38.53;8.20;;;;;;;;;;4979227;28;20054;-66
2021/12/22 05:39:58;;;;;;;32.70;8.82;;;;;;;;;;4978721;28;20438;-68
2021/12/22 05:42:26;;;;;;;39.97;12.57;;;;;;;;;;4979663;28;20030;-67
2021/12/22 05:44:54;;;;;;;57.22;19.67;;;;;;;;;;4979092;28;20031;-68
2021/12/22 05:47:21;;;;;;;44.17;20.98;;;;;;;;;;4979748;28;20718;-68
2021/12/22 05:49:49;;;;;;;58.90;22.67;;;;;;;;;;4988507;28;20027;-67
2021/12/22 05:52:16;;;;;;;66.88;24.30;;;;;;;;;;4978969;28;20058;-68
2021/12/22 05:54:45;;;;;;;65.75;20.70;;;;;;;;;;4978106;28;20031;-68
2021/12/22 05:57:13;;;;;;;55.00;24.15;;;;;;;;;;4978969;28;20031;-68
2021/12/22 05:59:40;;;;;;;47.65;20.77;;;;;;;;;;4978917;28;20029;-67
2021/12/22 06:02:07;;;;;;;53.13;19.58;;;;;;;;;;4979234;28;20023;-67
2021/12/22 06:04:35;;;;;;;53.83;19.50;;;;;;;;;;4975910;28;20033;-67
2021/12/22 06:07:03;;;;;;;33.28;13.73;;;;;;;;;;4979104;28;20086;-67
2021/12/22 06:09:30;;;;;;;38.88;11.05;;;;;;;;;;4979136;28;20027;-66
2021/12/22 06:11:58;;;;;;;13.88;6.07;;;;;;;;;;4978824;28;20307;-67
2021/12/22 06:14:25;;;;;;;19.60;7.18;;;;;;;;;;4978851;28;20062;-67
2021/12/22 06:16:53;;;;;;;19.20;7.25;;;;;;;;;;4978981;28;20093;-66
2021/12/22 06:19:21;;;;;;;20.10;6.45;;;;;;;;;;4972478;28;20082;-67
2021/12/22 06:21:48;;;;;;;29.77;8.32;;;;;;;;;;4967073;28;20055;-67
2021/12/22 06:24:15;;;;;;;20.83;6.35;;;;;;;;;;4972873;28;20026;-67
2021/12/22 06:26:43;;;;;;;21.50;6.97;;;;;;;;;;4977608;28;20038;-67
2021/12/22 06:29:10;;;;;;;20.05;6.03;;;;;;;;;;4970623;28;20456;-65
2021/12/22 06:31:38;;;;;;;19.10;6.00;;;;;;;;;;4969176;28;20019;-67
2021/12/22 06:34:06;;;;;;;24.88;6.05;;;;;;;;;;4968653;28;20423;-67
2021/12/22 06:36:33;;;;;;;19.55;6.25;;;;;;;;;;4964848;28;20030;-65
2021/12/22 06:39:01;;;;;;;18.83;5.20;;;;;;;;;;4974997;28;20018;-66
2021/12/22 06:41:31;;;;;;;22.77;6.45;;;;;;;;;;4977312;28;20030;-67
2021/12/22 06:43:59;;;;;;;20.42;6.43;;;;;;;;;;4978120;28;20027;-66
2021/12/22 06:46:26;;;;;;;21.17;6.05;;;;;;;;;;4977141;28;20494;-67
2021/12/22 06:48:54;;;;;;;16.58;5.53;;;;;;;;;;4978343;28;20431;-67
2021/12/22 06:51:21;;;;;;;15.23;5.10;;;;;;;;;;4978056;28;20038;-68
2021/12/22 06:53:49;;;;;;;20.17;6.05;;;;;;;;;;4978153;28;20446;-67
2021/12/22 06:56:16;;;;;;;23.27;5.70;;;;;;;;;;4977269;28;20332;-67
2021/12/22 06:58:44;;;;;;;17.33;5.43;;;;;;;;;;4976689;28;20102;-68
2021/12/22 07:01:17;;;;;;;25.42;6.78;;;;;;;;;;4976999;28;20019;-67
2021/12/22 07:03:45;;;;;;;29.30;7.85;;;;;;;;;;4977788;28;20027;-67
2021/12/22 07:06:13;;;;;;;32.95;8.20;;;;;;;;;;4977822;28;20047;-67
2021/12/22 07:08:40;;;;;;;25.33;8.98;;;;;;;;;;4978089;28;20027;-67
2021/12/22 07:11:09;;;;;;;33.95;11.27;;;;;;;;;;4976964;28;20070;-68
2021/12/22 07:13:37;;;;;;;24.85;10.95;;;;;;;;;;4977992;28;20026;-67
2021/12/22 07:16:04;;;;;;;42.22;16.05;;;;;;;;;;4972444;28;20323;-68
2021/12/22 07:18:32;;;;;;;56.65;26.45;;;;;;;;;;4968919;28;20022;-68
2021/12/22 07:21:00;;;;;;;32.65;14.63;;;;;;;;;;4965842;28;20321;-68
2021/12/22 07:23:26;;;;;;;40.63;20.33;;;;;;;;;;4957700;28;20098;-67
2021/12/22 07:25:54;;;;;;;30.65;9.30;;;;;;;;;;4958388;28;20023;-68
2021/12/22 07:28:22;;;;;;;22.23;7.57;;;;;;;;;;4957645;28;20031;-66
2021/12/22 07:30:49;;;;;;;22.50;7.32;;;;;;;;;;4957373;28;20023;-66
2021/12/22 07:33:18;;;;;;;22.17;7.20;;;;;;;;;;4959529;28;20055;-66
2021/12/22 07:36:14;;;;;;;24.60;7.95;;;;;;;;;;4970078;28;20476;-67
2021/12/22 07:38:40;;;;;;;28.98;10.13;;;;;;;;;;4979893;28;20097;-67
2021/12/22 07:41:09;;;;;;;29.40;9.43;;;;;;;;;;4976477;28;20030;-67
2021/12/22 07:43:37;;;;;;;32.20;9.95;;;;;;;;;;4977672;28;20019;-66
2021/12/22 07:46:07;;;;;;;35.25;10.55;;;;;;;;;;4977187;28;20167;-66
2021/12/22 07:48:35;;;;;;;34.83;12.18;;;;;;;;;;4976501;28;20046;-66
2021/12/22 07:51:03;;;;;;;26.00;12.15;;;;;;;;;;4977633;28;20181;-66
2021/12/22 07:53:31;;;;;;;37.58;13.35;;;;;;;;;;4976720;28;20525;-66
2021/12/22 07:55:59;;;;;;;28.13;11.13;;;;;;;;;;4976973;28;20042;-67
2021/12/22 07:58:27;;;;;;;31.98;10.40;;;;;;;;;;4976589;28;20023;-67
2021/12/22 08:00:55;;;;;;;54.78;13.18;;;;;;;;;;4977849;28;20185;-67
2021/12/22 08:03:23;;;;;;;24.17;9.40;;;;;;;;;;4975701;28;20439;-65
2021/12/22 08:05:51;;;;;;;23.10;8.88;;;;;;;;;;4977098;28;20091;-66
2021/12/22 08:08:19;;;;;;;19.42;8.40;;;;;;;;;;4977038;28;20027;-66
2021/12/22 08:10:47;;;;;;;27.20;7.72;;;;;;;;;;4977130;28;20685;-66
2021/12/22 08:13:18;;;;;;;23.67;7.95;;;;;;;;;;4977192;28;20023;-66
2021/12/22 08:15:46;;;;;;;30.25;6.80;;;;;;;;;;4977018;28;20026;-66
2021/12/22 08:18:13;;;;;;;28.15;6.38;;;;;;;;;;4977037;28;20344;-66
2021/12/22 08:20:50;;;;;;;27.23;6.28;;;;;;;;;;4978485;28;20031;-67
2021/12/22 08:23:18;;;;;;;18.77;6.13;;;;;;;;;;4975506;28;20062;-67
2021/12/22 08:25:45;;;;;;;15.07;5.65;;;;;;;;;;4976585;28;20015;-66
2021/12/22 08:28:12;;;;;;;30.15;9.98;;;;;;;;;;4977310;28;20027;-66
2021/12/22 08:30:42;;;;;;;26.67;9.75;;;;;;;;;;4977428;28;20371;-66
2021/12/22 08:33:20;;;;;;;33.80;13.77;;;;;;;;;;4976888;28;20082;-67
2021/12/22 08:38:53;;;;;;;20.92;8.57;;;;;;;;;;4977208;28;20135;-66
2021/12/22 08:41:30;;;;;;;21.25;7.47;;;;;;;;;;4976999;28;20026;-66
2021/12/22 08:44:00;;;;;;;16.98;6.70;;;;;;;;;;4976089;28;20027;-66
2021/12/22 08:46:29;;;;;;;19.90;8.05;;;;;;;;;;4977185;28;20018;-66
2021/12/22 08:48:57;;;;;;;27.00;9.80;;;;;;;;;;4977128;28;20035;-67
2021/12/22 08:51:25;;;;;;;44.03;18.05;;;;;;;;;;4977874;28;20331;-67
2021/12/22 08:53:53;;;;;;;40.30;20.60;;;;;;;;;;4977572;28;20031;-66
2021/12/22 08:56:21;;;;;;;40.92;17.95;;;;;;;;;;4975850;28;20058;-66
2021/12/22 08:58:49;;;;;;;42.03;20.17;;;;;;;;;;4976292;28;20030;-66
2021/12/22 09:01:16;;;;;;;44.72;20.27;;;;;;;;;;4976097;28;20046;-66
2021/12/22 09:03:44;;;;;;;57.17;26.08;;;;;;;;;;4976678;28;20134;-66
2021/12/22 09:06:13;;;;;;;37.33;19.23;;;;;;;;;;4979431;28;20023;-66
2021/12/22 09:08:41;;;;;;;28.05;12.23;;;;;;;;;;4981617;28;20303;-67
2021/12/22 09:11:09;;;;;;;31.15;12.57;;;;;;;;;;4981078;28;20026;-66
2021/12/22 09:13:37;;;;;;;23.60;9.50;;;;;;;;;;4980624;28;20023;-66
2021/12/22 09:16:05;;;;;;;22.80;11.35;;;;;;;;;;4980529;28;20042;-67
2021/12/22 09:18:33;;;;;;;24.27;9.77;;;;;;;;;;4980776;28;20034;-67
2021/12/22 09:21:00;;;;;;;21.00;10.10;;;;;;;;;;4980183;28;20033;-67
2021/12/22 09:23:27;;;;;;;27.92;11.50;;;;;;;;;;4981417;28;20055;-68
2021/12/22 09:25:53;;;;;;;18.40;6.65;;;;;;;;;;4980545;28;20085;-67
2021/12/22 09:28:21;;;;;;;15.48;6.35;;;;;;;;;;4981652;28;20030;-68
2021/12/22 09:30:48;;;;;;;18.10;6.82;;;;;;;;;;4981163;28;20019;-67
2021/12/22 09:33:18;;;;;;;16.70;6.97;;;;;;;;;;4980409;28;20370;-68
2021/12/22 09:35:47;;;;;;;25.20;10.18;;;;;;;;;;4979107;28;20023;-67
2021/12/22 09:38:17;;;;;;;18.02;8.15;;;;;;;;;;4980151;28;20039;-68
2021/12/22 09:40:45;;;;;;;24.30;8.52;;;;;;;;;;4980172;28;20441;-67
2021/12/22 09:43:15;;;;;;;18.17;7.40;;;;;;;;;;4980592;28;20103;-66
2021/12/22 09:45:47;;;;;;;16.95;7.68;;;;;;;;;;4978945;28;20113;-67
2021/12/22 09:48:28;;;;;;;24.95;9.68;;;;;;;;;;4979928;28;20101;-65
2021/12/22 09:53:29;;;;;;;33.75;11.32;;;;;;;;;;4979675;28;20027;-67
2021/12/22 09:55:58;;;;;;;32.33;13.82;;;;;;;;;;4979047;28;20034;-67
2021/12/22 09:58:26;;;;;;;33.05;13.88;;;;;;;;;;4979457;28;20019;-67
2021/12/22 10:00:54;;;;;;;54.58;24.60;;;;;;;;;;4979017;28;20022;-67
2021/12/22 10:03:23;;;;;;;190.98;100.43;;;;;;;;;;4979862;28;20030;-67
2021/12/22 10:05:51;;;;;;;156.68;68.43;;;;;;;;;;4978678;28;20026;-68
2021/12/22 10:08:21;;;;;;;115.57;45.15;;;;;;;;;;4980242;28;20046;-67
2021/12/22 10:10:59;;;;;;;100.95;42.15;;;;;;;;;;4979973;28;20069;-68
2021/12/22 10:13:28;;;;;;;93.03;42.85;;;;;;;;;;4979335;28;20027;-68
2021/12/22 10:15:56;;;;;;;79.57;38.33;;;;;;;;;;4979952;28;20037;-68
2021/12/22 10:18:25;;;;;;;87.97;45.42;;;;;;;;;;4979898;28;20031;-68
2021/12/22 10:20:55;;;;;;;83.05;43.92;;;;;;;;;;4980972;28;20031;-68
2021/12/22 10:23:26;;;;;;;95.97;52.97;;;;;;;;;;4979139;28;20420;-68
2021/12/22 10:25:57;;;;;;;101.60;56.08;;;;;;;;;;4980418;28;20035;-68
2021/12/22 10:28:25;;;;;;;121.15;62.20;;;;;;;;;;4978633;28;20027;-68
2021/12/22 10:30:58;;;;;;;104.50;49.60;;;;;;;;;;4977758;28;20023;-67
2021/12/22 10:33:30;;;;;;;105.72;57.97;;;;;;;;;;4969593;28;20019;-68
2021/12/22 10:35:59;;;;;;;144.68;76.13;;;;;;;;;;4991141;28;20023;-68
2021/12/22 10:38:28;;;;;;;268.48;138.07;;;;;;;;;;4996739;28;20097;-67
2021/12/22 10:40:56;;;;;;;171.82;88.20;;;;;;;;;;4996802;28;20034;-68
2021/12/22 10:43:25;;;;;;;160.38;81.88;;;;;;;;;;4996533;28;20328;-68
2021/12/22 10:45:55;;;;;;;171.68;82.53;;;;;;;;;;4996514;28;20073;-68
2021/12/22 10:51:19;;;;;;;264.33;106.25;;;;;;;;;;4996742;28;20030;-68
2021/12/22 10:53:48;;;;;;;276.83;132.80;;;;;;;;;;4996286;28;20041;-68
2021/12/22 10:56:26;;;;;;;397.63;168.25;;;;;;;;;;4997417;28;20084;-68
2021/12/22 10:59:09;;;;;;;436.73;175.60;;;;;;;;;;4997039;28;20113;-67
2021/12/22 11:01:38;;;;;;;320.73;130.20;;;;;;;;;;4996669;28;20447;-68
2021/12/22 11:04:17;;;;;;;179.40;81.47;;;;;;;;;;4996898;28;20046;-68
2021/12/22 11:06:44;;;;;;;157.95;77.05;;;;;;;;;;4995557;28;20343;-68
2021/12/22 11:09:14;;;;;;;235.07;104.00;;;;;;;;;;4980209;28;20032;-66
2021/12/22 11:11:56;;;;;;;239.07;105.47;;;;;;;;;;4990317;28;20027;-69
2021/12/22 11:14:29;;;;;;;245.55;115.20;;;;;;;;;;4990073;28;20035;-67
2021/12/22 11:17:08;;;;;;;254.70;116.25;;;;;;;;;;4959163;28;20427;-67
2021/12/22 11:19:48;;;;;;;268.77;103.65;;;;;;;;;;4990508;28;20031;-67
2021/12/22 11:22:16;;;;;;;285.63;105.80;;;;;;;;;;4990250;28;20078;-66
2021/12/22 11:24:53;;;;;;;282.63;111.25;;;;;;;;;;4958922;28;20050;-67
2021/12/22 11:27:27;;;;;;;591.13;336.40;;;;;;;;;;4989996;28;20024;-68
2021/12/22 11:29:57;;;;;;;515.95;287.00;;;;;;;;;;4990292;28;20035;-67
2021/12/22 11:32:27;;;;;;;487.13;267.98;;;;;;;;;;4959236;28;20027;-67
2021/12/22 11:34:55;;;;;;;558.42;328.00;;;;;;;;;;4958791;28;20031;-67
2021/12/22 11:37:23;;;;;;;326.20;170.25;;;;;;;;;;4990106;28;20031;-68
2021/12/22 11:39:51;;;;;;;295.23;141.95;;;;;;;;;;4959829;28;20031;-68
2021/12/22 11:42:22;;;;;;;252.48;113.20;;;;;;;;;;4958710;28;20019;-68
2021/12/22 11:44:53;;;;;;;221.05;97.38;;;;;;;;;;4958765;28;20098;-68
2021/12/22 11:47:20;;;;;;;209.13;99.10;;;;;;;;;;4958661;28;20026;-68
2021/12/22 11:50:00;;;;;;;218.48;101.75;;;;;;;;;;4989727;28;20034;-68
2021/12/22 11:52:37;;;;;;;216.27;86.47;;;;;;;;;;4989880;28;20122;-68
2021/12/22 11:55:06;;;;;;;175.32;80.53;;;;;;;;;;4958299;28;20027;-68
2021/12/22 11:57:34;;;;;;;287.67;113.35;;;;;;;;;;4958381;28;20433;-68
2021/12/22 12:00:22;;;;;;;323.23;140.73;;;;;;;;;;4958089;28;20104;-68
2021/12/22 12:02:50;;;;;;;311.77;135.43;;;;;;;;;;4975369;28;20064;-68
2021/12/22 12:05:19;;;;;;;128.35;59.53;;;;;;;;;;4975463;28;20034;-69
2021/12/22 12:07:51;;;;;;;160.52;65.50;;;;;;;;;;4975098;28;20145;-67
2021/12/22 12:10:38;;;;;;;199.63;93.25;;;;;;;;;;4975526;28;20109;-67
2021/12/22 12:13:16;;;;;;;146.45;67.20;;;;;;;;;;4958770;28;20030;-67
2021/12/22 12:21:50;;;;;;;209.13;98.03;;;;;;;;;;4975392;28;20058;-67
2021/12/22 12:24:37;;;;;;;406.05;190.55;;;;;;;;;;4959336;28;20391;-67
2021/12/22 12:27:25;;;;;;;294.55;144.55;;;;;;;;;;4975518;28;20054;-67
2021/12/22 12:30:06;;;;;;;203.90;100.78;;;;;;;;;;4918139;29;20059;-68
2021/12/22 12:32:49;;;;;;;163.00;73.53;;;;;;;;;;4917849;29;20065;-67
2021/12/22 12:35:23;;;;;;;156.55;73.22;;;;;;;;;;4917637;29;20071;-66
2021/12/22 12:38:08;;;;;;;151.52;64.72;;;;;;;;;;4917681;29;20115;-68
2021/12/22 12:40:54;;;;;;;165.88;74.65;;;;;;;;;;4917173;29;20043;-68
2021/12/22 12:46:29;;;;;;;217.15;100.45;;;;;;;;;;4898970;29;20118;-67
2021/12/22 12:49:13;;;;;;;224.02;97.53;;;;;;;;;;4898958;29;20036;-67
2021/12/22 12:51:47;;;;;;;246.65;105.13;;;;;;;;;;4898833;29;20037;-68
2021/12/22 12:54:23;;;;;;;278.60;125.40;;;;;;;;;;4898816;29;20036;-67
2021/12/22 12:57:00;;;;;;;291.77;129.65;;;;;;;;;;4898647;29;20089;-68
2021/12/22 12:59:45;;;;;;;302.88;128.55;;;;;;;;;;4898555;29;20036;-68
2021/12/22 13:02:19;;;;;;;299.77;126.10;;;;;;;;;;4898564;29;20024;-68
2021/12/22 13:04:47;;;;;;;271.48;117.70;;;;;;;;;;4898540;29;20048;-68
2021/12/22 13:07:20;;;;;;;267.42;119.07;;;;;;;;;;4933484;29;20043;-68
2021/12/22 13:09:53;;;;;;;277.30;123.70;;;;;;;;;;4955743;29;20094;-67
2021/12/22 13:17:42;;;;;;;290.13;128.30;;;;;;;;;;4955659;29;20046;-68
2021/12/22 13:20:11;;;;;;;202.13;80.30;;;;;;;;;;4939685;29;20038;-68
2021/12/22 13:22:38;;;;;;;240.80;106.45;;;;;;;;;;4941375;29;20039;-68
2021/12/22 13:25:12;;;;;;;191.27;84.65;;;;;;;;;;4957385;28;20336;-68
2021/12/22 13:27:41;;;;;;;193.60;74.25;;;;;;;;;;4957495;28;20103;-68
2021/12/22 13:30:14;;;;;;;138.60;51.33;;;;;;;;;;4957579;28;20031;-69
2021/12/22 13:33:00;;;;;;;162.57;59.90;;;;;;;;;;4957477;28;20055;-68
2021/12/22 13:35:35;;;;;;;96.20;26.98;;;;;;;;;;4957477;28;20035;-69
2021/12/22 13:38:04;;;;;;;108.85;37.05;;;;;;;;;;4988745;28;20032;-69
2021/12/22 13:40:44;;;;;;;202.27;85.53;;;;;;;;;;4988643;28;20028;-69
2021/12/22 13:43:31;;;;;;;118.38;44.53;;;;;;;;;;4957409;28;20416;-68
2021/12/22 13:46:18;;;;;;;128.82;40.67;;;;;;;;;;4957331;28;20051;-68
2021/12/22 13:49:09;;;;;;;106.38;30.92;;;;;;;;;;4974667;28;20039;-68
2021/12/22 13:51:47;;;;;;;111.68;37.13;;;;;;;;;;4976423;28;20372;-68
2021/12/22 13:54:23;;;;;;;135.10;39.47;;;;;;;;;;4978425;28;20050;-68
2021/12/22 13:56:51;;;;;;;124.03;35.33;;;;;;;;;;4961998;28;20027;-68
2021/12/22 13:59:23;;;;;;;109.50;35.00;;;;;;;;;;4958633;29;20035;-68
2021/12/22 14:01:52;;;;;;;112.07;35.42;;;;;;;;;;4942717;29;20055;-67
2021/12/22 14:04:40;;;;;;;92.82;25.38;;;;;;;;;;4942681;29;20023;-68
2021/12/22 14:07:14;;;;;;;98.57;24.50;;;;;;;;;;4958587;29;20039;-68
2021/12/22 14:09:49;;;;;;;92.97;23.20;;;;;;;;;;4958623;29;20424;-68
2021/12/22 14:12:27;;;;;;;91.68;23.08;;;;;;;;;;4958631;29;20042;-67
2021/12/22 14:14:58;;;;;;;98.57;23.00;;;;;;;;;;4958741;29;20031;-68
2021/12/22 14:17:42;;;;;;;77.35;21.55;;;;;;;;;;4942506;29;20023;-68
2021/12/22 14:20:22;;;;;;;78.20;19.20;;;;;;;;;;4942303;29;20038;-68
2021/12/22 14:22:49;;;;;;;90.65;21.40;;;;;;;;;;4958314;29;20086;-68
2021/12/22 14:25:19;;;;;;;75.32;17.25;;;;;;;;;;4958465;29;20074;-67
2021/12/22 14:27:51;;;;;;;91.95;17.38;;;;;;;;;;4942356;29;20067;-68
2021/12/22 14:30:32;;;;;;;86.82;16.35;;;;;;;;;;4942283;29;20035;-68
2021/12/22 14:33:02;;;;;;;83.63;21.60;;;;;;;;;;4958350;29;20031;-68
2021/12/22 14:35:34;;;;;;;93.55;18.80;;;;;;;;;;4958051;29;20043;-67
2021/12/22 14:38:06;;;;;;;93.65;24.77;;;;;;;;;;4958072;29;20493;-67
2021/12/22 14:40:35;;;;;;;133.52;34.95;;;;;;;;;;4957886;29;20059;-66
2021/12/22 14:43:04;;;;;;;97.70;19.83;;;;;;;;;;4958846;29;20031;-67
2021/12/22 14:45:46;;;;;;;110.35;27.25;;;;;;;;;;4959810;28;20047;-67
2021/12/22 14:48:17;;;;;;;82.80;17.50;;;;;;;;;;4991004;28;20102;-67
2021/12/22 14:51:08;;;;;;;79.85;18.63;;;;;;;;;;4959683;28;20468;-67
2021/12/22 14:53:37;;;;;;;81.13;17.63;;;;;;;;;;4959741;28;20039;-67
2021/12/22 14:56:09;;;;;;;89.13;17.95;;;;;;;;;;4959800;28;20534;-67
2021/12/22 14:58:37;;;;;;;83.53;19.45;;;;;;;;;;4990830;28;20031;-67
2021/12/22 15:01:06;;;;;;;81.85;17.08;;;;;;;;;;4959514;28;20023;-66
2021/12/22 15:03:34;;;;;;;79.43;16.02;;;;;;;;;;4958786;28;20031;-66
2021/12/22 15:06:05;;;;;;;80.75;18.23;;;;;;;;;;4959395;28;20024;-66
2021/12/22 15:08:33;;;;;;;75.50;17.25;;;;;;;;;;4990803;28;20046;-66
2021/12/22 15:11:01;;;;;;;77.88;17.05;;;;;;;;;;4959414;28;20098;-66
2021/12/22 15:13:29;;;;;;;92.65;18.60;;;;;;;;;;4959486;28;20425;-66
2021/12/22 15:15:59;;;;;;;81.90;20.90;;;;;;;;;;4959474;28;20483;-67
2021/12/22 15:18:27;;;;;;;98.85;21.65;;;;;;;;;;4990611;28;20023;-67